Elizabethtown, Illinois
Current Conditions -  °F | °C
As of 3:55 PM on Wednesday 28 Jan 2015 (Local Time) from K5M9 Reporting Station
Clear Clear  
Wind Chill: 39°   Ceiling: Unl
Heat Index: 44°   Visibility: 10mi
Dew Point: 29°   Wind: 9mph
Humidity: 55%   Direction: 150°SSE
Pressure: 30.14"   Gusts: 18mph
Location:  37.45°N, 88.31°W
Report Text: K5M9 282155Z AUTO 15008G16KT 10SM CLR 07/M02 A3014 RMK AO2 T00681016
Loading
Personal Weather Stations






























Interactive Weather Map New forecast layout! Learn more

10-Day Weather Forecast

Advertisements
Track Severe Weather on mobile